Startpagina
METAR-TAF:

METAR-TAF

Vliegvelden :

Amman, Jordanië

breedte: 31-59N, lengte: 035-59E, hoogte: 767 m

Actueel weer

Dit bericht is 47 minuten geleden gemaakt, om 05:00 UTC
Wind 6 kt uit het westzuidwesten
Temperatuur 21°C
Vochtigheid 60%
Druk 1015 hPa
Zicht: 5000 m
Heiigheid

METAR: OJAM 190500Z 25006KT 5000 HZ NSC 21/13 Q1015 NOSIG

Tijdstip: 08:47 (05:47 UTC)

Verwachting

Dit bericht is 1 uur en het 8 minuten geleden gemaakt, om 04:39 UTC
Verwachting geldig van 19 om 06 UTC tot 20 om 12 UTC
Wind 10 kt uit het westnoordwesten
Zicht: 5000 m
Weinig wolken op 3500 ft
Heiigheid
Kans 30%
van 20 om 02 UTC tot 20 om 05 UTC
Wind 2 kt uit variabele richting
Zicht: 3000 m
nevel

TAF: OJAM 190439Z 1906/2012 29010KT 5000 HZ FEW035 PROB30 2002/2005 VRB02KT 3000 BR

Waarnemingen en weersverwachtingen van meer dan 4000 vliegvelden (METAR en TAF).

De beschikbare stations zijn de gele en rode punten op de kaart.

Ga met uw muis naar het station om de naam te zien.

Klik dan om waarnemingen en weersverwachtingen te zien.

kaart wijzigen: klik op de groene knoppen met een zwart kruis om in te zoomen, op de groene knop met een streepje om uit te zoomen of op de groene pijlen voor aangrenzende kaarten.


METAR-TAF: